Flight Information

DEPARTURE
ALBUQUERQUE, NM
Elevation:
5354
Runways:
8/26 - 13793x150 - CONC-G
12/30 - 6000x150 - CONC-G
3/21 - 10000x150 - CONC-G
Active PE Departure:
3 - 8
Current PE ATIS:
G
Altimeter:
30.05
Remarks:
V F R DEPARTURES CONTACT CLEARANCE DELIVERY, ADVISE ON COURSE HEADING, ALTITUDE, AND IF FLIGHT FOLLOWING IS REQUESTED.
ATIS:
118 505-856-4928
Clearance Delivery:
119.2
Ground:
121.9
Tower:
ALBUQUERQUE TOWER 120.3
DESTINATION
,
Elevation:
TPA:
1000 (est.)


6211.8 NM80° True-12° Var68° HDG

Flight Plan:
(click to file on line)

1. Type
2. Aircraft Identification
3. Aircraft Type / Special Equipment
4. True Airspeed
kts
5. Departure Airport
(ICAO code)
6. Arriving Airport
(ICAO code)
7. Cruising Altitude
ft
8. Alternate Airport
(ICAO code)
9. Route of Flight
10. Remarks


00:00:00 Departure ATIS: Destination ATIS:

Clearance Limit:
Route:
Altitude: Expect in minutes
Frequency:
Transponder: (7500 Hijack / 7600 Lost Comms / 7700 Emergency)


KABQ 080252Z 12005KT 10SM FEW120 16/M07 A3005 RMK AO2 SLP126 T01611072 53008
Time: 2020-04-08T02:52:00Z
1586316531
Winds: 120 @ 5 kts
Visibility: 10.0 sm
Clouds (AGL): FEW 12000
Temperature: 16.1 C
Dew Point: -7.2 C
Pressure: 30.050198 in Hgbr


Notes:

Data extracted from FAA Digital Chart Supplement. Effective: 0901Z Thursday, Mar 26, 2020 to 0901Z Thursday, May 21, 2020
Current ATIS data is provided courtisy of PilotEdge.